Flight Track Log - Related Links

Times and Time Zones

All times are in EDT time to prevent confusion due to time zone crossing. See the N249AJ flight status page for this flight to view local times or setup timezone preferences in your user account.

Time Position Orientation Groundspeed Altitude Reporting Facility
EDT Latitude Longitude Course Direction KTS MPH feet Rate Location/Type
Sat 11:18:25 AM 25.8944 -80.2703 98° East 148 170 400  Level Miami Center
Sat 11:19:26 AM 25.8872 -80.2125 98° East 210 242 2,000 1,366 Climbing Miami Center
Sat 11:20:28 AM 25.8911 -80.1364 87° East 255 293 3,200 1,537 Climbing Miami Center
Sat 11:21:27 AM 25.8969 -80.0672 85° East 256 295 5,100 2,118 Climbing Miami Center
Sat 11:22:27 AM 25.8986 -79.9842 89° East 261 300 7,400 2,450 Climbing Miami Center
Sat 11:23:27 AM 25.9067 -79.8989 84° East 273 314 10,000 2,400 Climbing Miami Center
Sat 11:24:27 AM 25.9083 -79.8133 89° East 273 314 12,200 1,550 Climbing Miami Center
Sat 11:25:27 AM 25.8428 -79.7494 139° Southeast 256 295 13,100 1,200 Climbing Miami Center
Sat 11:26:27 AM 25.7647 -79.6806 142° Southeast 299 344 14,600 1,600 Climbing Miami Center
Sat 11:27:27 AM 25.6975 -79.6008 133° Southeast 334 384 16,300 1,550 Climbing Miami Center
Sat 11:28:27 AM 25.6300 -79.5161 131° Southeast 356 410 17,700 1,200 Climbing Miami Center
Sat 11:29:27 AM 25.5606 -79.4294 132° Southeast 368 423 18,700 1,100 Climbing Miami Center
Sat 11:30:27 AM 25.4931 -79.3361 129° Southeast 380 437 19,900 1,200 Climbing Miami Center
Sat 11:31:27 AM 25.4236 -79.2378 128° Southeast 392 451 21,100 1,000 Climbing Miami Center
Sat 11:32:27 AM 25.3481 -79.1422 131° Southeast 398 458 21,900 750 Climbing Miami Center
Sat 11:33:27 AM 25.2764 -79.0397 128° Southeast 408 470 22,600 650 Climbing Miami Center
Sat 11:34:27 AM 25.1964 -78.9303 129° Southeast 413 475 23,200 750 Climbing Miami Center
Sat 11:35:27 AM 25.1225 -78.8419 133° Southeast 413 475 24,100 850 Climbing Miami Center
Sat 11:36:27 AM 25.0464 -78.7375 129° Southeast 418 481 24,900 750 Climbing Miami Center
Sat 11:37:27 AM 24.9725 -78.6308 127° Southeast 430 495 25,600 700 Climbing Miami Center
Sat 11:38:27 AM 24.8922 -78.5267 130° Southeast 435 501 26,300 700 Climbing Miami Center
Sat 11:39:27 AM 24.8139 -78.4225 130° Southeast 435 501 27,000 700 Climbing Miami Center
Sat 11:40:27 AM 24.7292 -78.3231 133° Southeast 440 506 27,700 750 Climbing Miami Center
Sat 11:41:27 AM 24.6489 -78.2192 130° Southeast 445 512 28,500 750 Climbing Miami Center
Sat 11:42:27 AM 24.5681 -78.1156 131° Southeast 445 512 29,200 700 Climbing Miami Center
Sat 11:43:27 AM 24.4897 -78.0119 130° Southeast 440 506 29,900 700 Climbing Miami Center
Sat 11:44:27 AM 24.4089 -77.9086 131° Southeast 440 506 30,600 700 Climbing Miami Center
Sat 11:45:27 AM 24.3281 -77.8008 129° Southeast 440 506 31,300 700 Climbing Miami Center
Sat 11:46:27 AM 24.2492 -77.6997 131° Southeast 445 512 32,000 750 Climbing Miami Center
Sat 11:47:27 AM 24.1703 -77.5900 128° Southeast 445 512 32,800 750 Climbing Miami Center
Sat 11:48:27 AM 24.0914 -77.4872 130° Southeast 450 518 33,500 700 Climbing Miami Center
Sat 11:49:27 AM 24.0083 -77.3844 131° Southeast 450 518 34,200 600 Climbing Miami Center
Sat 11:50:27 AM 23.9269 -77.2839 132° Southeast 450 518 34,700 400 Climbing Miami Center
Sat 11:51:27 AM 23.8458 -77.1814 131° Southeast 442 509 35,000 150 Climbing Miami Center
Sat 11:52:27 AM 23.7583 -77.0678 130° Southeast 442 509 35,000 -50 Level Miami Center
Sat 11:53:27 AM 23.6747 -76.9564 129° Southeast 453 521 34,900 -50 Descending Miami Center
Sat 11:54:27 AM 23.5911 -76.8408 128° Southeast 466 536 34,900  Level Miami Center
Sat 11:55:27 AM 23.5075 -76.7297 129° Southeast 472 543 34,900  Level Miami Center
Sat 11:56:27 AM 23.4197 -76.6189 131° Southeast 477 549 34,900  Level Miami Center
Sat 11:57:27 AM 23.3294 -76.5128 133° Southeast 477 549 34,900  Level Miami Center
Sat 11:58:27 AM 23.2414 -76.4022 131° Southeast 477 549 34,900  Level Miami Center
Sat 11:59:27 AM 23.1617 -76.3008 131° Southeast 482 555 34,900  Level Miami Center
Sat 12:00:27 PM 23.0756 -76.1906 130° Southeast 482 555 34,900  Level Miami Center
Sat 12:01:27 PM 22.9872 -76.0803 131° Southeast 482 555 34,900 200 Level Miami Center
Sat 12:02:27 PM 22.9031 -75.9658 129° Southeast 482 555 35,300 500 Climbing Miami Center
Sat 12:03:27 PM 22.8189 -75.8561 130° Southeast 476 548 35,900 550 Climbing Miami Center
Sat 12:04:27 PM 22.7344 -75.7486 130° Southeast 476 548 36,400 450 Climbing Miami Center
Sat 12:05:27 PM 22.6542 -75.6411 129° Southeast 476 548 36,800 300 Climbing Miami Center
Sat 12:06:27 PM 22.5656 -75.5408 134° Southeast 471 542 37,000 50 Climbing Miami Center
Sat 12:07:27 PM 22.4792 -75.4383 132° Southeast 471 542 36,900 -50 Descending Miami Center
Sat 12:08:27 PM 22.3903 -75.3314 132° Southeast 466 536 36,900  Level Miami Center
Sat 12:09:27 PM 22.3014 -75.2247 132° Southeast 466 536 36,900  Level Miami Center
Sat 12:10:27 PM 22.2125 -75.1158 131° Southeast 466 536 36,900  Level Miami Center
Sat 12:11:27 PM 22.1297 -75.0050 129° Southeast 476 548 36,900  Level Miami Center
Sat 12:12:27 PM 22.0325 -74.9033 136° Southeast 481 554 36,900  Level Miami Center
Sat 12:13:27 PM 21.9267 -74.8153 142° Southeast 481 554 36,900  Level Miami Center
Sat 12:14:27 PM 21.8231 -74.7231 140° Southeast 481 554 36,900  Level Miami Center
Sat 12:15:27 PM 21.7194 -74.6286 140° Southeast 481 554 36,900  Level Miami Center
Sat 12:16:27 PM 21.6158 -74.5386 141° Southeast 481 554 36,900  Level Miami Center
Sat 12:17:27 PM 21.5122 -74.4492 141° Southeast 481 554 36,900  Level Miami Center
Sat 12:18:27 PM 21.4083 -74.3572 141° Southeast 481 554 36,900  Level Miami Center
Sat 12:19:27 PM 21.3067 -74.2611 139° Southeast 481 554 36,900  Level Miami Center
Sat 12:20:27 PM 21.2067 -74.1653 138° Southeast 481 554 36,900 -100 Level Miami Center
Sat 12:21:27 PM 21.1069 -74.0625 136° Southeast 492 566 36,700 -450 Descending Miami Center
Sat 12:22:27 PM 21.0047 -73.9603 137° Southeast 497 572 36,000 -650 Descending Miami Center
Sat 12:23:27 PM 20.9008 -73.8669 140° Southeast 497 572 35,400 -550 Descending Miami Center
Sat 12:24:27 PM 20.7881 -73.7694 141° Southeast 502 578 34,900 -250 Descending Miami Center
Sat 12:25:27 PM 20.6819 -73.6767 141° Southeast 502 578 34,900  Level Miami Center
Sat 12:26:27 PM 20.5694 -73.5861 143° Southeast 502 578 34,900  Level Miami Center
Sat 12:27:27 PM 20.4592 -73.4936 142° Southeast 502 578 34,900  Level Miami Center
Sat 12:28:27 PM 20.3528 -73.4033 141° Southeast 495 570 34,900  Level Miami Center
Sat 12:29:27 PM 20.2486 -73.3131 141° Southeast 495 570 34,900  Level Miami Center
Sat 12:30:27 PM 20.1422 -73.2208 141° Southeast 495 570 34,900  Level Miami Center
Sat 12:31:27 PM 20.0378 -73.1264 140° Southeast 488 562 34,900  Level Miami Center
Sat 12:32:27 PM 19.9375 -73.0367 140° Southeast 488 562 34,900  Level Miami Center
Sat 12:34:00 PM 19.8055 -72.8904 134° Southeast  Level FlightAware Approximate
Sat 12:41:00 PM 19.2080 -72.2326 134° Southeast  Level FlightAware Approximate
Sat 12:42:00 PM 19.1225 -72.1390 134° Southeast  Level FlightAware Approximate
Sat 12:43:00 PM 19.0369 -72.0455 134° Southeast  Level FlightAware Approximate
Sat 12:44:00 PM 18.9512 -71.9521 134° Southeast  Level FlightAware Approximate
Sat 12:45:00 PM 18.8655 -71.8589 134° Southeast  Level FlightAware Approximate
Sat 12:46:00 PM 18.7798 -71.7657 134° Southeast  Level FlightAware Approximate
Sat 12:47:00 PM 18.6930 -71.6732 135° Southeast  Level FlightAware Approximate
Sat 12:48:00 PM 18.6059 -71.5816 135° Southeast  Level FlightAware Approximate
Sat 12:49:00 PM 18.5187 -71.4900 135° Southeast  Level FlightAware Approximate
Sat 12:50:00 PM 18.4315 -71.3985 135° Southeast  Level FlightAware Approximate
Sat 12:51:00 PM 18.3443 -71.3071 135° Southeast  Level FlightAware Approximate
Sat 12:52:00 PM 18.2570 -71.2159 135° Southeast  Level FlightAware Approximate
Sat 12:53:00 PM 18.1696 -71.1246 135° Southeast  Level FlightAware Approximate
Sat 12:54:00 PM 18.0823 -71.0335 135° Southeast  Level FlightAware Approximate
Sat 12:55:00 PM 17.9949 -70.9425 135° Southeast  Level FlightAware Approximate
Sat 12:56:00 PM 17.9074 -70.8516 135° Southeast  Level FlightAware Approximate
Sat 12:57:00 PM 17.8199 -70.7607 135° Southeast  Level FlightAware Approximate
Sat 12:58:00 PM 17.7324 -70.6700 135° Southeast  Level FlightAware Approximate
Sat 12:59:00 PM 17.6448 -70.5793 135° Southeast  Level FlightAware Approximate
Sat 01:00:00 PM 17.5572 -70.4888 135° Southeast  Level FlightAware Approximate
Sat 01:01:00 PM 17.4695 -70.3983 135° Southeast  Level FlightAware Approximate
Sat 01:02:00 PM 17.3818 -70.3079 135° Southeast  Level FlightAware Approximate
Sat 01:03:00 PM 17.2941 -70.2176 135° Southeast  Level FlightAware Approximate
Sat 01:04:00 PM 17.2063 -70.1273 136° Southeast  Level FlightAware Approximate
Sat 01:05:00 PM 17.1184 -70.0372 136° Southeast  Level FlightAware Approximate
Sat 01:06:00 PM 17.0306 -69.9472 136° Southeast  Level FlightAware Approximate
Sat 01:07:00 PM 16.9426 -69.8572 136° Southeast  Level FlightAware Approximate
Sat 01:08:00 PM 16.8547 -69.7673 136° Southeast  Level FlightAware Approximate
Sat 01:09:00 PM 16.7667 -69.6775 136° Southeast  Level FlightAware Approximate
Sat 01:10:00 PM 16.6787 -69.5878 136° Southeast  Level FlightAware Approximate
Sat 01:11:00 PM 16.5907 -69.4981 136° Southeast  Level FlightAware Approximate
Sat 01:12:00 PM 16.5026 -69.4086 136° Southeast  Level FlightAware Approximate
Sat 01:13:00 PM 16.4144 -69.3191 136° Southeast  Level FlightAware Approximate
Sat 01:14:00 PM 16.3262 -69.2297 136° Southeast  Level FlightAware Approximate
Sat 01:15:00 PM 16.2380 -69.1404 136° Southeast  Level FlightAware Approximate
Sat 01:16:00 PM 16.1498 -69.0512 136° Southeast  Level FlightAware Approximate
Sat 01:17:00 PM 16.0615 -68.9620 136° Southeast  Level FlightAware Approximate
Sat 01:18:00 PM 15.9731 -68.8730 136° Southeast  Level FlightAware Approximate
Sat 01:19:00 PM 15.8844 -68.7844 136° Southeast  Level FlightAware Approximate
Sat 01:20:00 PM 15.7956 -68.6958 136° Southeast  Level FlightAware Approximate
Sat 01:21:00 PM 15.7069 -68.6074 136° Southeast  Level FlightAware Approximate
Sat 01:22:00 PM 15.6181 -68.5189 136° Southeast  Level FlightAware Approximate
Sat 01:23:00 PM 15.5293 -68.4306 136° Southeast  Level FlightAware Approximate
Sat 01:24:00 PM 15.4404 -68.3423 136° Southeast  Level FlightAware Approximate
Sat 01:25:00 PM 15.3515 -68.2542 136° Southeast  Level FlightAware Approximate
Sat 01:26:00 PM 15.2626 -68.1661 136° Southeast  Level FlightAware Approximate
Sat 01:27:00 PM 15.1736 -68.0780 136° Southeast  Level FlightAware Approximate
Sat 01:28:00 PM 15.0846 -67.9901 136° Southeast  Level FlightAware Approximate
Sat 01:29:00 PM 14.9956 -67.9022 136° Southeast  Level FlightAware Approximate
Sat 01:30:00 PM 14.9065 -67.8144 136° Southeast  Level FlightAware Approximate
Sat 01:31:00 PM 14.8174 -67.7266 136° Southeast  Level FlightAware Approximate
Sat 01:32:00 PM 14.7283 -67.6390 136° Southeast  Level FlightAware Approximate
Sat 01:33:00 PM 14.6391 -67.5514 136° Southeast  Level FlightAware Approximate
Sat 01:34:00 PM 14.5499 -67.4639 136° Southeast  Level FlightAware Approximate
Sat 01:35:00 PM 14.4607 -67.3764 136° Southeast  Level FlightAware Approximate
Sat 01:36:00 PM 14.3715 -67.2889 136° Southeast  Level FlightAware Approximate
Sat 01:37:00 PM 14.2825 -67.2012 136° Southeast  Level FlightAware Approximate
Sat 01:38:00 PM 14.1935 -67.1137 136° Southeast  Level FlightAware Approximate
Sat 01:39:00 PM 14.1044 -67.0262 136° Southeast  Level FlightAware Approximate
Sat 01:40:00 PM 14.0153 -66.9388 136° Southeast  Level FlightAware Approximate
Sat 01:41:00 PM 13.9262 -66.8514 136° Southeast  Level FlightAware Approximate
Sat 01:42:00 PM 13.8370 -66.7641 136° Southeast  Level FlightAware Approximate
Sat 01:43:00 PM 13.7478 -66.6769 136° Southeast  Level FlightAware Approximate
Sat 01:44:00 PM 13.6586 -66.5898 136° Southeast  Level FlightAware Approximate
Sat 01:45:00 PM 13.5693 -66.5027 137° Southeast  Level FlightAware Approximate
Sat 01:46:00 PM 13.4800 -66.4157 137° Southeast  Level FlightAware Approximate
Sat 01:47:00 PM 13.3907 -66.3287 137° Southeast  Level FlightAware Approximate
Sat 01:48:00 PM 13.3013 -66.2418 137° Southeast  Level FlightAware Approximate
Sat 01:49:00 PM 13.2120 -66.1550 137° Southeast  Level FlightAware Approximate
Sat 01:50:00 PM 13.1225 -66.0683 137° Southeast  Level FlightAware Approximate
Sat 01:51:00 PM 13.0331 -65.9816 137° Southeast  Level FlightAware Approximate
Sat 01:52:00 PM 12.9436 -65.8949 137° Southeast  Level FlightAware Approximate
Sat 01:53:00 PM 12.8541 -65.8083 137° Southeast  Level FlightAware Approximate
Sat 01:54:00 PM 12.7646 -65.7218 137° Southeast  Level FlightAware Approximate
Sat 01:55:00 PM 12.6750 -65.6354 137° Southeast  Level FlightAware Approximate
Sat 01:56:00 PM 12.5855 -65.5490 137° Southeast  Level FlightAware Approximate
Sat 01:57:00 PM 12.4959 -65.4626 136° Southeast  Level FlightAware Approximate
Sat 01:58:00 PM 12.4080 -65.3745 136° Southeast  Level FlightAware Approximate
Sat 01:59:00 PM 12.3200 -65.2865 136° Southeast  Level FlightAware Approximate
Sat 02:00:00 PM 12.2319 -65.1986 136° Southeast  Level FlightAware Approximate
Sat 02:01:00 PM 12.1383 -65.1173 142° Southeast  Level FlightAware Approximate
Sat 02:02:00 PM 12.0434 -65.0372 140° Southeast  Level FlightAware Approximate
Sat 02:03:00 PM 11.9526 -64.9526 136° Southeast  Level FlightAware Approximate
Sat 02:04:00 PM 11.8647 -64.8646 136° Southeast  Level FlightAware Approximate
Sat 02:05:00 PM 11.7768 -64.7767 136° Southeast  Level FlightAware Approximate
Sat 02:06:00 PM 11.6889 -64.6888 136° Southeast  Level FlightAware Approximate
Sat 02:07:00 PM 11.6010 -64.6009 136° Southeast  Level FlightAware Approximate
Sat 02:08:00 PM 11.5131 -64.5131 136° Southeast  Level FlightAware Approximate
Sat 02:09:00 PM 11.4206 -64.4305 139° Southeast  Level FlightAware Approximate
Sat 02:10:00 PM 11.3295 -64.3462 136° Southeast  Level FlightAware Approximate
Sat 02:11:00 PM 11.2417 -64.2584 136° Southeast  Level FlightAware Approximate
Sat 02:12:00 PM 11.1539 -64.1705 136° Southeast  Level FlightAware Approximate
Sat 02:13:00 PM 11.0631 -64.0865 147° Southeast  Level FlightAware Approximate
Sat 02:14:00 PM 10.9710 -64.0043 136° Southeast  Level FlightAware Approximate
Sat 02:15:00 PM 10.9167 -63.9667 270° West  Level FlightAware Approximate
Sat 02:16:00 PM 10.9126 -63.9666 270° West  Level Estimated
Sat 02:17:00 PM 10.9167 -63.9667 270° West  Level FlightAware Approximate
Sat 02:18:00 PM 10.9126 -63.9666 270° West  Level Estimated
Sat 02:19:00 PM 10.9167 -63.9667 270° West  Level FlightAware Approximate
Sat 02:20:00 PM 10.9126 -63.9666 270° West  Level Estimated
Sat 02:21:00 PM 10.9167 -63.9667 270° West  Level FlightAware Approximate
Sat 02:22:00 PM 10.9126 -63.9666 270° West  Level Estimated
Sat 02:23:00 PM 10.9167 -63.9667 270° West  Level FlightAware Approximate
Sat 02:24:00 PM 10.9126 -63.9666 270° West  Level Estimated
Sat 02:25:00 PM 10.9167 -63.9667 270° West  Level FlightAware Approximate
Sat 02:26:00 PM 10.9126 -63.9666 270° West  Level Estimated
Sat 02:27:00 PM 10.9167 -63.9667 270° West  Level FlightAware Approximate
Sat 02:28:00 PM 10.9126 -63.9666 270° West  Level Estimated
Sat 02:29:00 PM 10.9167 -63.9667 270° West  Level FlightAware Approximate
Sat 02:30:00 PM 10.9126 -63.9666 270° West  Level Estimated

Login

Don't have an account? Register now (free) for customized features, flight alerts, and more!